createdAt,value
2022-12-18T00:02:32.743Z,71.22
2022-12-18T00:05:34.447Z,70.27
2022-12-18T00:08:36.408Z,70.05
2022-12-18T00:11:37.912Z,69.49
2022-12-18T00:14:39.363Z,70.48
2022-12-18T00:17:43.172Z,70.24
2022-12-18T00:20:44.653Z,71.16
2022-12-18T00:23:47.570Z,70.70
2022-12-18T00:26:49.085Z,71.79
2022-12-18T00:29:50.570Z,71.51
2022-12-18T00:32:52.047Z,72.31
2022-12-18T00:35:53.452Z,71.91
2022-12-18T00:38:56.416Z,71.18
2022-12-18T00:42:16.512Z,71.12
2022-12-18T00:45:18.131Z,70.83
2022-12-18T00:48:19.688Z,71.57
2022-12-18T00:51:21.219Z,71.35
2022-12-18T00:54:22.889Z,71.18
2022-12-18T00:57:25.209Z,71.34
2022-12-18T01:00:26.726Z,71.62
2022-12-18T01:03:28.261Z,71.19
2022-12-18T01:06:30.351Z,70.87
2022-12-18T01:09:31.856Z,70.54
2022-12-18T01:12:33.711Z,70.50
2022-12-18T01:15:35.219Z,70.21
2022-12-18T01:18:37.233Z,70.13
2022-12-18T01:21:38.818Z,69.80
2022-12-18T01:24:40.407Z,69.20
2022-12-18T01:27:41.920Z,69.44
2022-12-18T01:30:43.372Z,69.16
2022-12-18T01:33:45.550Z,68.85
2022-12-18T01:36:47.048Z,69.62
2022-12-18T01:39:48.531Z,70.16
2022-12-18T01:42:54.263Z,69.82
2022-12-18T01:45:55.766Z,70.67
2022-12-18T01:49:00.915Z,69.71
2022-12-18T01:52:02.462Z,70.08
2022-12-18T01:55:07.068Z,69.82
2022-12-18T01:58:08.629Z,69.39
2022-12-18T02:01:10.635Z,69.83
2022-12-18T02:04:22.851Z,69.70
2022-12-18T02:07:30.429Z,70.52
2022-12-18T02:10:41.265Z,71.46
2022-12-18T02:14:02.889Z,72.01
2022-12-18T02:17:22.062Z,71.90
2022-12-18T02:20:31.744Z,72.30
2022-12-18T02:23:46.101Z,71.79
2022-12-18T02:26:51.765Z,72.00
2022-12-18T02:29:59.698Z,70.83
2022-12-18T02:33:06.213Z,70.84
2022-12-18T02:36:10.861Z,70.17
2022-12-18T02:39:16.274Z,69.62
2022-12-18T02:42:30.180Z,69.76
2022-12-18T02:45:32.126Z,69.74
2022-12-18T02:48:35.927Z,70.84
2022-12-18T02:51:52.785Z,69.78
2022-12-18T02:55:06.821Z,70.26
2022-12-18T02:58:17.521Z,69.88
2022-12-18T03:01:58.741Z,70.09
2022-12-18T03:05:10.409Z,69.20
2022-12-18T03:08:18.414Z,69.92
2022-12-18T03:11:41.196Z,70.97
2022-12-18T03:14:45.937Z,71.07
2022-12-18T03:18:14.462Z,69.84
2022-12-18T03:21:20.575Z,69.57
2022-12-18T03:24:23.582Z,69.86
2022-12-18T03:27:29.066Z,69.46
2022-12-18T03:30:38.321Z,69.79
2022-12-18T03:33:46.664Z,70.14
2022-12-18T03:36:49.469Z,69.37
2022-12-18T03:39:51.163Z,69.74
2022-12-18T03:43:04.398Z,69.76
2022-12-18T03:46:17.048Z,70.91
2022-12-18T03:49:32.224Z,70.83
2022-12-18T03:52:39.126Z,69.40
2022-12-18T03:55:44.425Z,70.26
2022-12-18T03:58:48.714Z,70.58
2022-12-18T04:01:59.879Z,71.05
2022-12-18T04:05:05.778Z,69.58
2022-12-18T04:08:10.004Z,68.67
2022-12-18T04:11:16.349Z,68.95
2022-12-18T04:14:21.132Z,69.47
2022-12-18T04:17:27.075Z,68.62
2022-12-18T04:20:28.604Z,69.11
2022-12-18T04:23:30.349Z,70.47
2022-12-18T04:26:33.957Z,69.80
2022-12-18T04:29:47.271Z,68.60
2022-12-18T04:32:52.342Z,68.14
2022-12-18T04:35:55.083Z,68.54
2022-12-18T04:38:56.661Z,69.70
2022-12-18T04:41:58.591Z,69.75
2022-12-18T04:45:00.014Z,69.65
2022-12-18T04:48:03.180Z,69.71
2022-12-18T04:51:06.058Z,69.23
2022-12-18T04:54:07.847Z,69.04
2022-12-18T04:57:09.488Z,68.96
2022-12-18T05:00:11.628Z,68.66
2022-12-18T05:03:13.131Z,68.94
2022-12-18T05:06:14.996Z,68.55
2022-12-18T05:09:16.475Z,68.91
2022-12-18T05:12:18.301Z,68.31
2022-12-18T05:15:19.716Z,69.04
2022-12-18T05:18:21.711Z,68.93
2022-12-18T05:21:23.202Z,69.02
2022-12-18T05:24:24.640Z,68.42
2022-12-18T05:27:26.299Z,68.30
2022-12-18T05:30:28.525Z,68.35
2022-12-18T05:33:31.644Z,68.11
2022-12-18T05:36:33.112Z,68.37
2022-12-18T05:39:34.525Z,67.98
2022-12-18T05:42:35.928Z,68.30
2022-12-18T05:45:39.079Z,67.85
2022-12-18T05:48:40.761Z,67.79
2022-12-18T05:51:42.320Z,68.31
2022-12-18T05:54:44.416Z,67.57
2022-12-18T05:57:45.904Z,67.86
2022-12-18T06:00:47.516Z,67.56
2022-12-18T06:03:49.476Z,68.92
2022-12-18T06:06:50.997Z,68.93
2022-12-18T06:09:52.409Z,67.99
2022-12-18T06:12:53.921Z,67.86
2022-12-18T06:15:55.334Z,68.63
2022-12-18T06:19:01.078Z,68.14
2022-12-18T06:22:02.945Z,68.22
2022-12-18T06:25:05.046Z,68.56
2022-12-18T06:28:06.621Z,68.12
2022-12-18T06:31:08.274Z,67.34
2022-12-18T06:34:09.871Z,68.42
2022-12-18T06:37:11.373Z,69.29
2022-12-18T06:40:12.891Z,70.87
2022-12-18T06:43:14.375Z,70.04
2022-12-18T06:46:15.952Z,69.66
2022-12-18T06:49:17.485Z,68.77
2022-12-18T06:52:18.932Z,68.09
2022-12-18T06:55:20.376Z,67.97
2022-12-18T06:58:21.807Z,69.69
2022-12-18T07:01:23.831Z,69.67
2022-12-18T07:04:30.140Z,69.21
2022-12-18T07:07:31.643Z,69.48
2022-12-18T07:10:33.167Z,68.60
2022-12-18T07:13:34.650Z,68.38
2022-12-18T07:16:36.182Z,67.82
2022-12-18T07:19:38.206Z,68.34
2022-12-18T07:22:39.642Z,68.37
2022-12-18T07:25:41.105Z,68.02
2022-12-18T07:28:43.440Z,67.74
2022-12-18T07:31:45.012Z,68.34
2022-12-18T07:34:46.482Z,68.36
2022-12-18T07:37:49.154Z,67.71
2022-12-18T07:40:50.557Z,67.20
2022-12-18T07:43:52.090Z,67.47
2022-12-18T07:46:53.567Z,66.12
2022-12-18T07:49:55.140Z,66.41
2022-12-18T07:52:56.670Z,66.51
2022-12-18T07:56:26.427Z,66.32
2022-12-18T07:59:24.791Z,66.60
2022-12-18T08:02:26.442Z,67.15
2022-12-18T08:05:28.111Z,66.59
2022-12-18T08:08:30.772Z,66.81
2022-12-18T08:11:32.376Z,66.60
2022-12-18T08:14:33.891Z,66.07
2022-12-18T08:17:35.598Z,66.41
2022-12-18T08:20:37.056Z,66.46
2022-12-18T08:23:42.728Z,65.82
2022-12-18T08:26:55.856Z,66.03
2022-12-18T08:30:07.339Z,66.03
2022-12-18T08:33:08.865Z,65.59
2022-12-18T08:36:11.041Z,65.80
2022-12-18T08:39:12.526Z,66.00
2022-12-18T08:42:32.376Z,65.65
2022-12-18T08:45:34.846Z,65.59
2022-12-18T08:48:36.726Z,65.34
2022-12-18T08:51:38.673Z,66.45
2022-12-18T08:54:40.172Z,66.59
2022-12-18T08:57:41.601Z,66.74
2022-12-18T09:00:43.049Z,66.29
2022-12-18T09:03:44.956Z,67.23
2022-12-18T09:06:46.593Z,66.34
2022-12-18T09:09:48.105Z,65.46
2022-12-18T09:12:49.608Z,64.98
2022-12-18T09:15:56.189Z,63.22
2022-12-18T09:19:00.622Z,62.67
2022-12-18T09:22:02.256Z,63.79
2022-12-18T09:25:03.930Z,63.04
2022-12-18T09:28:15.488Z,62.78
2022-12-18T09:31:18.679Z,63.41
2022-12-18T09:34:22.721Z,63.39
2022-12-18T09:37:24.226Z,62.63
2022-12-18T09:40:36.853Z,61.94
2022-12-18T09:43:48.198Z,62.38
2022-12-18T09:47:19.315Z,62.34
2022-12-18T09:50:39.014Z,62.72
2022-12-18T09:53:45.678Z,63.10
2022-12-18T09:56:47.628Z,63.18
2022-12-18T09:59:55.843Z,63.01
2022-12-18T10:03:04.360Z,62.28
2022-12-18T10:06:19.372Z,62.59
2022-12-18T10:09:48.009Z,63.59
2022-12-18T10:13:12.090Z,64.00
2022-12-18T10:16:18.628Z,63.81
2022-12-18T10:19:58.427Z,63.77
2022-12-18T10:23:10.516Z,64.26
2022-12-18T10:26:13.507Z,63.84
2022-12-18T10:29:17.574Z,64.00
2022-12-18T10:32:28.824Z,65.08
2022-12-18T10:35:30.385Z,64.73
2022-12-18T10:38:33.009Z,64.44
2022-12-18T11:24:41.663Z,66.66
2022-12-18T11:27:50.322Z,66.98
2022-12-18T11:31:09.428Z,67.42
2022-12-18T11:34:30.033Z,67.87
2022-12-18T11:37:33.719Z,68.05
2022-12-18T11:40:41.626Z,68.58
2022-12-18T11:44:01.896Z,68.17
2022-12-18T11:47:38.215Z,69.07
2022-12-18T11:50:49.585Z,69.27
2022-12-18T11:53:52.795Z,69.95
2022-12-18T11:57:20.505Z,67.48
2022-12-18T12:00:23.560Z,67.05
2022-12-18T12:03:52.905Z,68.23
2022-12-18T12:07:18.735Z,69.34
2022-12-18T12:10:37.292Z,69.23
2022-12-18T12:14:11.768Z,69.15
2022-12-18T12:17:36.017Z,68.66
2022-12-18T12:20:47.025Z,67.68
2022-12-18T12:24:24.246Z,66.77
2022-12-18T12:27:44.594Z,66.83
2022-12-18T12:31:16.448Z,67.32
2022-12-18T12:34:23.601Z,67.27
2022-12-18T12:37:59.597Z,67.16
2022-12-18T12:41:06.194Z,67.93
2022-12-18T12:44:14.289Z,68.47
2022-12-18T12:47:21.617Z,67.89
2022-12-18T12:50:24.328Z,67.07
2022-12-18T12:53:35.865Z,67.28
2022-12-18T12:56:42.206Z,66.65
2022-12-18T13:00:11.294Z,66.58
2022-12-18T13:03:32.677Z,67.81
2022-12-18T13:06:42.998Z,67.54
2022-12-18T13:10:17.748Z,67.56
2022-12-18T13:13:23.652Z,66.94
2022-12-18T13:16:28.368Z,67.24
2022-12-18T13:19:30.241Z,66.58
2022-12-18T13:22:52.296Z,68.20
2022-12-18T13:26:12.029Z,68.97
2022-12-18T13:29:44.348Z,68.66
2022-12-18T13:32:45.863Z,68.37
2022-12-18T13:35:48.353Z,69.38
2022-12-18T13:39:23.888Z,69.13
2022-12-18T13:43:05.593Z,68.53
2022-12-18T13:46:23.051Z,68.74
2022-12-18T13:49:45.352Z,69.49
2022-12-18T13:52:47.157Z,69.54
2022-12-18T13:55:50.433Z,69.62
2022-12-18T13:59:10.982Z,69.07
2022-12-18T14:02:23.238Z,69.17
2022-12-18T14:05:27.537Z,69.32
2022-12-18T14:08:35.619Z,68.98
2022-12-18T14:11:38.250Z,69.00
2022-12-18T14:14:48.171Z,69.24
2022-12-18T14:17:52.418Z,68.81
2022-12-18T14:20:57.644Z,69.03
2022-12-18T14:24:18.276Z,70.21
2022-12-18T14:27:26.816Z,70.12
2022-12-18T14:30:32.024Z,69.67
2022-12-18T14:33:33.555Z,69.36
2022-12-18T14:36:35.013Z,69.57
2022-12-18T14:39:36.467Z,69.40
2022-12-18T14:42:38.362Z,69.20
2022-12-18T14:45:47.077Z,69.12
2022-12-18T14:48:49.301Z,69.44
2022-12-18T14:51:56.446Z,69.87
2022-12-18T14:54:57.990Z,69.79
2022-12-18T14:57:59.493Z,71.40
2022-12-18T15:01:01.091Z,70.76
2022-12-18T15:04:04.207Z,70.85
2022-12-18T15:07:13.833Z,70.81
2022-12-18T15:10:20.878Z,70.25
2022-12-18T15:13:24.076Z,69.78
2022-12-18T15:16:25.987Z,70.03
2022-12-18T15:19:39.458Z,69.13
2022-12-18T15:22:40.985Z,69.57
2022-12-18T15:25:42.591Z,69.48
2022-12-18T15:28:58.314Z,68.82
2022-12-18T15:32:05.700Z,68.98
2022-12-18T15:35:19.717Z,68.93
2022-12-18T15:38:21.179Z,68.63
2022-12-18T15:41:24.823Z,68.81
2022-12-18T15:44:26.675Z,68.72
2022-12-18T15:47:29.210Z,68.68
2022-12-18T15:50:30.760Z,69.23
2022-12-18T15:53:34.596Z,69.06
2022-12-18T15:56:54.625Z,68.64
2022-12-18T16:00:00.133Z,68.90
2022-12-18T16:03:01.943Z,69.16
2022-12-18T16:06:04.093Z,69.22
2022-12-18T16:09:06.156Z,69.14
2022-12-18T16:12:16.484Z,68.26
2022-12-18T16:15:24.107Z,67.87
2022-12-18T16:18:26.212Z,68.66
2022-12-18T16:21:32.275Z,68.52
2022-12-18T16:24:37.127Z,69.14
2022-12-18T16:27:38.756Z,69.25
2022-12-18T16:30:41.220Z,69.32
2022-12-18T16:33:43.404Z,69.01
2022-12-18T16:36:45.395Z,68.79
2022-12-18T16:39:46.939Z,69.69
2022-12-18T16:42:48.516Z,69.89
2022-12-18T16:45:49.988Z,69.54
2022-12-18T16:48:51.449Z,69.77
2022-12-18T16:51:52.882Z,69.50
2022-12-18T16:54:54.456Z,69.53
2022-12-18T16:57:55.961Z,69.68
2022-12-18T17:00:57.931Z,69.40
2022-12-18T17:04:03.686Z,69.62
2022-12-18T17:07:05.178Z,70.38
2022-12-18T17:10:07.019Z,69.99
2022-12-18T17:13:08.483Z,69.79
2022-12-18T17:16:10.170Z,69.74
2022-12-18T17:19:16.805Z,69.51
2022-12-18T17:22:19.303Z,69.29
2022-12-18T17:25:20.780Z,69.85
2022-12-18T17:28:23.031Z,69.93
2022-12-18T17:31:28.240Z,69.73
2022-12-18T17:34:29.797Z,69.43
2022-12-18T17:37:31.873Z,69.38
2022-12-18T17:40:33.524Z,68.96
2022-12-18T17:43:36.496Z,69.20
2022-12-18T17:46:38.019Z,69.64
2022-12-18T17:49:39.745Z,69.37
2022-12-18T17:52:42.006Z,69.49
2022-12-18T17:55:43.535Z,69.63
2022-12-18T17:58:45.255Z,70.46
2022-12-18T18:01:46.897Z,70.63
2022-12-18T18:04:48.506Z,70.31
2022-12-18T18:07:50.119Z,70.23
2022-12-18T18:10:53.543Z,70.35
2022-12-18T18:14:01.043Z,69.87
2022-12-18T18:17:04.885Z,69.56
2022-12-18T18:20:07.285Z,69.15
2022-12-18T18:23:08.773Z,70.28
2022-12-18T18:26:10.197Z,70.32
2022-12-18T18:29:18.717Z,69.66
2022-12-18T18:32:20.879Z,69.00
2022-12-18T18:35:52.507Z,69.50
2022-12-18T18:38:48.231Z,69.82
2022-12-18T18:41:50.739Z,69.82
2022-12-18T18:44:52.240Z,70.32
2022-12-18T18:47:53.878Z,69.71
2022-12-18T18:50:59.610Z,69.48
2022-12-18T18:54:01.169Z,69.75
2022-12-18T19:00:24.484Z,69.70
2022-12-18T19:03:26.751Z,69.99
2022-12-18T19:06:29.009Z,69.64
2022-12-18T19:09:31.364Z,69.96
2022-12-18T19:12:53.050Z,69.41
2022-12-18T19:16:05.741Z,69.94
2022-12-18T19:19:08.187Z,70.01
2022-12-18T19:22:10.860Z,70.00
2022-12-18T19:25:12.413Z,70.51
2022-12-18T19:28:22.145Z,70.11
2022-12-18T19:31:26.255Z,69.94
2022-12-18T19:34:31.485Z,70.00
2022-12-18T19:37:35.085Z,69.86
2022-12-18T19:40:40.781Z,69.49
2022-12-18T19:43:42.436Z,70.13
2022-12-18T19:46:46.138Z,69.43
2022-12-18T19:49:47.736Z,69.72
2022-12-18T19:52:49.435Z,69.97
2022-12-18T19:55:51.034Z,69.58
2022-12-18T19:58:54.348Z,70.05
2022-12-18T20:01:56.033Z,70.09
2022-12-18T20:04:57.588Z,70.34
2022-12-18T20:07:59.050Z,70.72
2022-12-18T20:11:00.480Z,70.60
2022-12-18T20:14:02.680Z,70.60
2022-12-18T20:17:04.237Z,71.36
2022-12-18T20:20:07.442Z,70.49
2022-12-18T20:23:09.469Z,71.02
2022-12-18T20:26:11.257Z,71.54
2022-12-18T20:29:12.770Z,71.29
2022-12-18T20:32:14.749Z,70.54
2022-12-18T20:35:16.398Z,70.97
2022-12-18T20:38:18.304Z,71.13
2022-12-18T20:41:22.689Z,70.49
2022-12-18T20:44:24.596Z,71.18
2022-12-18T20:47:26.327Z,70.81
2022-12-18T20:50:28.296Z,70.79
2022-12-18T20:53:29.742Z,70.44
2022-12-18T20:56:31.678Z,70.38
2022-12-18T20:59:33.309Z,70.42
2022-12-18T21:02:34.977Z,70.90
2022-12-18T21:05:36.592Z,70.41
2022-12-18T21:08:39.367Z,71.07
2022-12-18T21:11:59.498Z,71.10
2022-12-18T21:15:02.429Z,70.22
2022-12-18T21:18:04.454Z,69.73
2022-12-18T21:21:06.001Z,71.71
2022-12-18T21:24:09.616Z,71.58
2022-12-18T21:27:13.014Z,71.59
2022-12-18T21:30:19.451Z,70.83
2022-12-18T21:33:21.198Z,71.17
2022-12-18T21:36:22.918Z,71.15
2022-12-18T21:39:25.897Z,70.72
2022-12-18T21:42:46.079Z,70.86
2022-12-18T21:45:47.600Z,71.21
2022-12-18T21:48:49.103Z,71.38
2022-12-18T21:51:53.343Z,70.92
2022-12-18T21:54:54.892Z,70.78
2022-12-18T21:57:56.617Z,70.65
2022-12-18T22:00:58.131Z,70.22
2022-12-18T22:03:59.783Z,70.71
2022-12-18T22:07:01.815Z,70.82
2022-12-18T22:10:03.565Z,71.50
2022-12-18T22:13:06.281Z,71.00
2022-12-18T22:16:07.835Z,70.85
2022-12-18T22:19:10.885Z,70.96
2022-12-18T22:22:12.539Z,71.37
2022-12-18T22:25:14.162Z,71.47
2022-12-18T22:28:34.264Z,71.21
2022-12-18T22:31:36.019Z,71.44
2022-12-18T22:34:38.579Z,70.92
2022-12-18T22:37:40.090Z,71.75
2022-12-18T22:40:41.601Z,72.20
2022-12-18T22:43:43.410Z,71.91
2022-12-18T22:46:47.339Z,71.96
2022-12-18T22:49:52.467Z,71.54
2022-12-18T22:52:53.949Z,71.45
2022-12-18T22:56:01.249Z,71.62
2022-12-18T22:59:04.027Z,71.60
2022-12-18T23:02:05.610Z,71.70
2022-12-18T23:05:07.421Z,71.80
2022-12-18T23:08:09.146Z,71.68
2022-12-18T23:11:11.592Z,71.53
2022-12-18T23:14:13.295Z,71.51
2022-12-18T23:17:14.811Z,71.83
2022-12-18T23:20:16.381Z,71.59
2022-12-18T23:23:18.267Z,72.04
2022-12-18T23:26:22.645Z,72.84
2022-12-18T23:29:24.131Z,73.54
2022-12-18T23:32:25.570Z,72.76
2022-12-18T23:35:27.083Z,72.41
2022-12-18T23:38:29.342Z,72.51
2022-12-18T23:41:32.680Z,72.33
2022-12-18T23:44:34.607Z,72.61
2022-12-18T23:47:36.083Z,72.58
2022-12-18T23:50:38.270Z,72.87
2022-12-18T23:53:39.908Z,73.31
2022-12-18T23:56:41.486Z,73.44
2022-12-18T23:59:43.107Z,72.46
